Time,TemperatureF,DewpointF,PressureIn,WindDirection,WindDirectionDegrees,WindSpeedMPH,WindSpeedGustMPH,Humidity,HourlyPrecipIn,Conditions,Clouds,dailyrainin,SolarRadiationWatts/m^2,SoftwareType,DateUTC
2013-03-15 00:06:00,21.7,8.0,30.00,West,265,6.0,-999.0,57,-99.99,,,0.00,0,weatherlink.com 1.10,2013-03-15 04:06:00,
2013-03-15 00:21:00,21.6,8.0,30.00,WSW,252,9.0,-999.0,57,-99.99,,,0.00,0,weatherlink.com 1.10,2013-03-15 04:21:00,
2013-03-15 00:36:00,21.6,8.0,30.01,West,279,2.0,-999.0,56,-99.99,,,0.00,0,weatherlink.com 1.10,2013-03-15 04:36:00,
2013-03-15 00:51:00,21.3,8.0,30.01,WNW,286,4.0,-999.0,56,-99.99,,,0.00,0,weatherlink.com 1.10,2013-03-15 04:51:00,
2013-03-15 01:06:00,21.0,8.0,30.00,West,281,10.0,-999.0,57,-99.99,,,0.00,0,weatherlink.com 1.10,2013-03-15 05:06:00,
2013-03-15 01:21:00,20.6,8.0,30.01,NW,315,12.0,-999.0,59,-99.99,,,0.00,0,weatherlink.com 1.10,2013-03-15 05:21:00,
2013-03-15 01:36:00,20.4,8.0,30.01,NNW,338,4.0,-999.0,60,-99.99,,,0.00,0,weatherlink.com 1.10,2013-03-15 05:36:00,
2013-03-15 01:51:00,20.0,9.0,30.02,WNW,282,4.0,-999.0,62,-99.99,,,0.00,0,weatherlink.com 1.10,2013-03-15 05:51:00,
2013-03-15 02:06:00,19.8,9.0,30.02,WSW,246,1.0,-999.0,63,-99.99,,,0.00,0,weatherlink.com 1.10,2013-03-15 06:06:00,
2013-03-15 02:21:00,19.5,9.0,30.02,West,261,3.0,-999.0,64,-99.99,,,0.00,0,weatherlink.com 1.10,2013-03-15 06:21:00,
2013-03-15 02:36:00,19.2,9.0,30.02,West,263,3.0,-999.0,65,-99.99,,,0.00,0,weatherlink.com 1.10,2013-03-15 06:36:00,
2013-03-15 03:06:00,18.8,9.0,30.01,WNW,286,3.0,-999.0,66,-99.99,,,0.00,0,weatherlink.com 1.10,2013-03-15 07:06:00,
2013-03-15 03:21:00,18.5,9.0,30.01,West,281,2.0,-999.0,67,-99.99,,,0.00,0,weatherlink.com 1.10,2013-03-15 07:21:00,
2013-03-15 03:51:00,18.3,10.0,30.00,WNW,300,3.0,-999.0,69,-99.99,,,0.00,0,weatherlink.com 1.10,2013-03-15 07:51:00,
2013-03-15 04:06:00,18.1,10.0,30.00,SSW,201,0.0,-999.0,70,-99.99,,,0.00,0,weatherlink.com 1.10,2013-03-15 08:06:00,
2013-03-15 04:21:00,18.0,10.0,29.99,SSW,213,3.0,-999.0,70,-99.99,,,0.00,0,weatherlink.com 1.10,2013-03-15 08:21:00,
2013-03-15 04:36:00,18.0,10.0,29.99,SSW,213,7.0,-999.0,71,-99.99,,,0.00,0,weatherlink.com 1.10,2013-03-15 08:36:00,
2013-03-15 04:51:00,18.1,11.0,29.99,SW,216,5.0,-999.0,72,-99.99,,,0.00,0,weatherlink.com 1.10,2013-03-15 08:51:00,
2013-03-15 05:06:00,18.0,11.0,29.99,West,271,3.0,-999.0,73,-99.99,,,0.00,0,weatherlink.com 1.10,2013-03-15 09:06:00,
2013-03-15 05:21:00,18.0,11.0,29.99,WSW,256,2.0,-999.0,73,-99.99,,,0.00,0,weatherlink.com 1.10,2013-03-15 09:21:00,
2013-03-15 05:36:00,18.0,11.0,29.99,SW,227,4.0,-999.0,74,-99.99,,,0.00,0,weatherlink.com 1.10,2013-03-15 09:36:00,
2013-03-15 05:51:00,17.9,11.0,29.99,WNW,284,3.0,-999.0,74,-99.99,,,0.00,0,weatherlink.com 1.10,2013-03-15 09:51:00,
2013-03-15 06:06:00,17.8,11.0,29.99,SSW,196,1.0,-999.0,75,-99.99,,,0.00,0,weatherlink.com 1.10,2013-03-15 10:06:00,
2013-03-15 06:21:00,17.7,11.0,29.98,WSW,246,2.0,-999.0,75,-99.99,,,0.00,0,weatherlink.com 1.10,2013-03-15 10:21:00,
2013-03-15 06:36:00,17.5,11.0,29.98,SW,228,0.0,-999.0,76,-99.99,,,0.00,0,weatherlink.com 1.10,2013-03-15 10:36:00,
2013-03-15 06:51:00,17.2,11.0,29.97,SW,228,0.0,-999.0,77,-99.99,,,0.00,0,weatherlink.com 1.10,2013-03-15 10:51:00,
2013-03-15 07:06:00,17.0,11.0,29.97,SW,228,2.0,-999.0,77,-99.99,,,0.00,0,weatherlink.com 1.10,2013-03-15 11:06:00,
2013-03-15 07:21:00,17.0,11.0,29.96,SW,228,2.0,-999.0,78,-99.99,,,0.00,11,weatherlink.com 1.10,2013-03-15 11:21:00,
2013-03-15 07:36:00,17.0,12.0,29.96,SSW,192,1.0,-999.0,79,-99.99,,,0.00,26,weatherlink.com 1.10,2013-03-15 11:36:00,
2013-03-15 07:51:00,17.2,12.0,29.96,SSW,192,1.0,-999.0,79,-99.99,,,0.00,40,weatherlink.com 1.10,2013-03-15 11:51:00,
2013-03-15 08:06:00,17.8,12.0,29.95,WSW,238,1.0,-999.0,79,-99.99,,,0.00,141,weatherlink.com 1.10,2013-03-15 12:06:00,
2013-03-15 08:21:00,19.1,13.0,29.94,SSW,194,1.0,-999.0,78,-99.99,,,0.00,128,weatherlink.com 1.10,2013-03-15 12:21:00,
2013-03-15 08:36:00,20.1,14.0,29.94,South,185,5.0,-999.0,76,-99.99,,,0.00,237,weatherlink.com 1.10,2013-03-15 12:36:00,
2013-03-15 08:51:00,21.2,14.0,29.93,South,186,3.0,-999.0,74,-99.99,,,0.00,279,weatherlink.com 1.10,2013-03-15 12:51:00,
2013-03-15 09:06:00,22.0,14.0,29.93,WSW,246,3.0,-999.0,72,-99.99,,,0.00,357,weatherlink.com 1.10,2013-03-15 13:06:00,
2013-03-15 09:21:00,22.6,15.0,29.94,SSW,199,1.0,-999.0,71,-99.99,,,0.00,357,weatherlink.com 1.10,2013-03-15 13:21:00,
2013-03-15 09:36:00,23.2,14.0,29.93,WSW,242,3.0,-999.0,69,-99.99,,,0.00,415,weatherlink.com 1.10,2013-03-15 13:36:00,
2013-03-15 09:51:00,24.6,15.0,29.92,WSW,257,2.0,-999.0,67,-99.99,,,0.00,508,weatherlink.com 1.10,2013-03-15 13:51:00,
2013-03-15 10:06:00,24.9,15.0,29.91,South,179,3.0,-999.0,65,-99.99,,,0.00,499,weatherlink.com 1.10,2013-03-15 14:06:00,
2013-03-15 10:21:00,25.4,15.0,29.89,SE,130,3.0,-999.0,66,-99.99,,,0.00,522,weatherlink.com 1.10,2013-03-15 14:21:00,
2013-03-15 10:36:00,26.4,16.0,29.88,SSE,157,10.0,-999.0,66,-99.99,,,0.00,494,weatherlink.com 1.10,2013-03-15 14:36:00,
2013-03-15 10:51:00,27.4,17.0,29.87,South,180,6.0,-999.0,66,-99.99,,,0.00,555,weatherlink.com 1.10,2013-03-15 14:51:00,
2013-03-15 11:21:00,29.0,17.0,29.86,SW,215,4.0,-999.0,61,-99.99,,,0.00,315,weatherlink.com 1.10,2013-03-15 15:21:00,
2013-03-15 11:37:00,29.7,18.0,29.85,SW,217,9.0,-999.0,62,-99.99,,,0.00,376,weatherlink.com 1.10,2013-03-15 15:37:00,
2013-03-15 11:51:00,29.4,18.0,29.84,SSW,203,5.0,-999.0,63,-99.99,,,0.00,399,weatherlink.com 1.10,2013-03-15 15:51:00,
2013-03-15 12:21:00,29.1,21.0,29.83,SSW,195,6.0,-999.0,72,-99.99,,,0.00,246,weatherlink.com 1.10,2013-03-15 16:21:00,
2013-03-15 12:36:00,28.0,22.0,29.83,SW,229,7.0,-999.0,79,-99.99,,,0.00,204,weatherlink.com 1.10,2013-03-15 16:36:00,
2013-03-15 12:51:00,27.6,22.0,29.82,WSW,248,4.0,-999.0,80,-99.99,,,0.00,113,weatherlink.com 1.10,2013-03-15 16:51:00,
2013-03-15 13:06:00,27.8,22.0,29.80,SSW,201,6.0,-999.0,78,-99.99,,,0.00,113,weatherlink.com 1.10,2013-03-15 17:06:00,
2013-03-15 13:21:00,28.1,22.0,29.80,WSW,239,4.0,-999.0,77,-99.99,,,0.00,97,weatherlink.com 1.10,2013-03-15 17:21:00,
2013-03-15 13:36:00,28.4,21.0,29.79,WNW,286,7.0,-999.0,75,-99.99,,,0.00,111,weatherlink.com 1.10,2013-03-15 17:36:00,
2013-03-15 13:51:00,28.8,22.0,29.79,WSW,240,7.0,-999.0,76,-99.99,,,0.00,121,weatherlink.com 1.10,2013-03-15 17:51:00,
2013-03-15 14:06:00,28.9,22.0,29.77,SSW,207,4.0,-999.0,75,-99.99,,,0.00,111,weatherlink.com 1.10,2013-03-15 18:06:00,
2013-03-15 14:21:00,29.1,22.0,29.77,SW,229,8.0,-999.0,76,-99.99,,,0.00,118,weatherlink.com 1.10,2013-03-15 18:21:00,
2013-03-15 14:36:00,29.2,23.0,29.76,SSW,207,2.0,-999.0,77,-99.99,,,0.00,65,weatherlink.com 1.10,2013-03-15 18:36:00,
2013-03-15 15:06:00,29.3,23.0,29.76,West,263,3.0,-999.0,78,-99.99,,,0.00,95,weatherlink.com 1.10,2013-03-15 19:06:00,
2013-03-15 15:21:00,29.6,24.0,29.76,WSW,237,5.0,-999.0,80,-99.99,,,0.00,151,weatherlink.com 1.10,2013-03-15 19:21:00,
2013-03-15 15:36:00,29.9,24.0,29.76,WNW,290,2.0,-999.0,80,-99.99,,,0.00,137,weatherlink.com 1.10,2013-03-15 19:36:00,
2013-03-15 15:51:00,30.3,25.0,29.75,WSW,253,5.0,-999.0,80,-99.99,,,0.00,181,weatherlink.com 1.10,2013-03-15 19:51:00,
2013-03-15 16:06:00,30.4,25.0,29.75,WSW,244,6.0,-999.0,81,-99.99,,,0.00,142,weatherlink.com 1.10,2013-03-15 20:06:00,
2013-03-15 16:22:00,30.4,25.0,29.75,SSW,209,15.0,-999.0,81,-99.99,,,0.00,120,weatherlink.com 1.10,2013-03-15 20:22:00,
2013-03-15 16:36:00,30.4,25.0,29.75,WSW,248,14.0,-999.0,80,-99.99,,,0.00,51,weatherlink.com 1.10,2013-03-15 20:36:00,
2013-03-15 16:51:00,30.4,25.0,29.75,SSW,209,9.0,-999.0,81,-99.99,,,0.00,40,weatherlink.com 1.10,2013-03-15 20:51:00,
2013-03-15 17:06:00,30.2,26.0,29.75,SSW,194,8.0,-999.0,83,-99.99,,,0.00,44,weatherlink.com 1.10,2013-03-15 21:06:00,
2013-03-15 17:21:00,29.9,26.0,29.75,West,271,11.0,-999.0,85,-99.99,,,0.00,65,weatherlink.com 1.10,2013-03-15 21:21:00,
2013-03-15 17:36:00,29.9,26.0,29.75,SW,218,2.0,-999.0,86,-99.99,,,0.00,77,weatherlink.com 1.10,2013-03-15 21:36:00,
2013-03-15 17:51:00,30.1,26.0,29.75,SSW,202,3.0,-999.0,86,-99.99,,,0.00,42,weatherlink.com 1.10,2013-03-15 21:51:00,
2013-03-15 18:07:00,30.0,26.0,29.76,SW,228,7.0,-999.0,86,-99.99,,,0.00,60,weatherlink.com 1.10,2013-03-15 22:07:00,
2013-03-15 18:21:00,29.9,26.0,29.76,West,281,7.0,-999.0,85,-99.99,,,0.00,47,weatherlink.com 1.10,2013-03-15 22:21:00,
2013-03-15 18:36:00,30.1,25.0,29.75,SW,214,6.0,-999.0,81,-99.99,,,0.00,21,weatherlink.com 1.10,2013-03-15 22:36:00,
2013-03-15 18:52:00,30.2,25.0,29.76,SW,222,17.0,-999.0,80,-99.99,,,0.00,5,weatherlink.com 1.10,2013-03-15 22:52:00,
2013-03-15 19:21:00,30.0,24.0,29.77,SW,227,10.0,-999.0,79,-99.99,,,0.00,0,weatherlink.com 1.10,2013-03-15 23:21:00,
2013-03-15 19:36:00,30.1,24.0,29.77,WSW,250,10.0,-999.0,78,-99.99,,,0.00,0,weatherlink.com 1.10,2013-03-15 23:36:00,
2013-03-15 19:51:00,30.1,24.0,29.78,WSW,238,20.0,-999.0,77,-99.99,,,0.00,0,weatherlink.com 1.10,2013-03-15 23:51:00,
2013-03-15 20:06:00,30.2,24.0,29.78,West,272,3.0,-999.0,77,-99.99,,,0.00,0,weatherlink.com 1.10,2013-03-16 00:06:00,
2013-03-15 20:21:00,30.2,24.0,29.78,SW,225,4.0,-999.0,76,-99.99,,,0.00,0,weatherlink.com 1.10,2013-03-16 00:21:00,
2013-03-15 20:36:00,30.3,24.0,29.79,West,268,4.0,-999.0,76,-99.99,,,0.00,0,weatherlink.com 1.10,2013-03-16 00:36:00,
2013-03-15 20:51:00,30.3,24.0,29.79,WNW,287,6.0,-999.0,76,-99.99,,,0.00,0,weatherlink.com 1.10,2013-03-16 00:51:00,
2013-03-15 21:06:00,30.3,23.0,29.80,NW,317,11.0,-999.0,75,-99.99,,,0.00,0,weatherlink.com 1.10,2013-03-16 01:06:00,
2013-03-15 21:21:00,30.3,23.0,29.79,WSW,248,3.0,-999.0,74,-99.99,,,0.00,0,weatherlink.com 1.10,2013-03-16 01:21:00,
2013-03-15 21:37:00,30.1,22.0,29.79,SW,222,6.0,-999.0,73,-99.99,,,0.00,0,weatherlink.com 1.10,2013-03-16 01:37:00,
2013-03-15 21:51:00,30.0,23.0,29.79,SW,220,12.0,-999.0,74,-99.99,,,0.00,0,weatherlink.com 1.10,2013-03-16 01:51:00,
2013-03-15 22:06:00,29.9,23.0,29.80,SW,236,5.0,-999.0,74,-99.99,,,0.00,0,weatherlink.com 1.10,2013-03-16 02:06:00,
2013-03-15 22:21:00,29.7,24.0,29.81,NNW,335,2.0,-999.0,78,-99.99,,,0.00,0,weatherlink.com 1.10,2013-03-16 02:21:00,
2013-03-15 22:36:00,28.7,25.0,29.82,SSW,212,2.0,-999.0,84,-99.99,,,0.00,0,weatherlink.com 1.10,2013-03-16 02:36:00,
2013-03-15 22:51:00,28.2,25.0,29.82,WNW,282,1.0,-999.0,86,-99.99,,,0.00,0,weatherlink.com 1.10,2013-03-16 02:51:00,
2013-03-15 23:06:00,28.0,24.0,29.83,NNW,331,3.0,-999.0,86,-99.99,,,0.00,0,weatherlink.com 1.10,2013-03-16 03:06:00,
2013-03-15 23:21:00,27.9,24.0,29.83,WNW,284,2.0,-999.0,85,-99.99,,,0.00,0,weatherlink.com 1.10,2013-03-16 03:21:00,
2013-03-15 23:36:00,27.9,23.0,29.83,NW,308,11.0,-999.0,82,-99.99,,,0.00,0,weatherlink.com 1.10,2013-03-16 03:36:00,
2013-03-15 23:51:00,27.8,22.0,29.83,WSW,250,5.0,-999.0,79,-99.99,,,0.00,0,weatherlink.com 1.10,2013-03-16 03:51:00,